Time;durP1;ratioP1;P1;durP2;ratioP2;P2;SDS_P1;SDS_P2;PMS_P1;PMS_P2;Temp;Humidity;BMP_temperature;BMP_pressure;BME280_temperature;BME280_humidity;BME280_pressure;Samples;Min_cycle;Max_cycle;Signal;HPM_P1;HPM_P2
2023/03/25 00:00:20;;;;;;;7.33;1.73;;;9.60;99.90;;;;;;5070861;28;20029;-49
2023/03/25 00:02:48;;;;;;;7.07;2.20;;;9.50;99.90;;;;;;5070884;28;20446;-49
2023/03/25 00:05:17;;;;;;;6.47;1.60;;;9.40;99.90;;;;;;5070519;28;20028;-50
2023/03/25 00:07:44;;;;;;;7.07;2.10;;;9.40;99.90;;;;;;5070897;28;20536;-51
2023/03/25 00:10:12;;;;;;;8.73;2.17;;;9.40;99.90;;;;;;5070789;28;20072;-47
2023/03/25 00:12:39;;;;;;;7.50;1.40;;;9.50;99.90;;;;;;5070714;28;20119;-49
2023/03/25 00:15:07;;;;;;;7.53;1.60;;;9.40;99.90;;;;;;5070502;28;20037;-47
2023/03/25 00:17:35;;;;;;;5.40;1.33;;;9.40;99.90;;;;;;5070383;28;20542;-47
2023/03/25 00:20:04;;;;;;;5.10;1.40;;;9.50;99.90;;;;;;5070199;28;20032;-52
2023/03/25 00:22:30;;;;;;;7.05;1.70;;;9.50;99.90;;;;;;5070651;28;20106;-50
2023/03/25 00:24:56;;;;;;;5.77;1.10;;;9.40;99.90;;;;;;5070315;28;20485;-53
2023/03/25 00:27:21;;;;;;;3.97;1.13;;;9.50;99.90;;;;;;5070370;28;20086;-49
2023/03/25 00:29:47;;;;;;;3.60;1.00;;;9.50;99.90;;;;;;5052386;28;20099;-52
2023/03/25 00:32:14;;;;;;;6.30;1.27;;;9.50;99.90;;;;;;5052403;28;20048;-49
2023/03/25 00:34:45;;;;;;;7.13;1.70;;;9.50;99.90;;;;;;5035465;28;20028;-51
2023/03/25 00:37:16;;;;;;;5.13;1.03;;;9.40;99.90;;;;;;5070303;28;20021;-49
2023/03/25 00:39:43;;;;;;;6.53;1.10;;;9.40;99.90;;;;;;5052381;28;20029;-49
2023/03/25 00:42:12;;;;;;;6.20;1.20;;;9.50;99.90;;;;;;5070399;28;20405;-50
2023/03/25 00:44:39;;;;;;;4.43;0.63;;;9.40;99.90;;;;;;5070032;28;20036;-51
2023/03/25 00:47:05;;;;;;;5.27;1.10;;;9.40;99.90;;;;;;5070214;28;20081;-47
2023/03/25 00:49:31;;;;;;;4.33;1.20;;;9.40;99.90;;;;;;5052224;28;20443;-52
2023/03/25 00:51:56;;;;;;;3.50;0.80;;;9.40;99.90;;;;;;5052330;28;20051;-47
2023/03/25 00:56:55;;;;;;;4.53;0.80;;;9.50;99.90;;;;;;5046955;28;20048;-46
2023/03/25 00:59:20;;;;;;;3.90;0.90;;;9.40;99.90;;;;;;5050079;28;20032;-47
2023/03/25 01:01:46;;;;;;;6.57;1.00;;;9.40;99.90;;;;;;5049848;28;20111;-49
2023/03/25 01:04:12;;;;;;;5.40;1.20;;;9.40;99.90;;;;;;5049720;28;20025;-50
2023/03/25 01:06:45;;;;;;;3.00;0.93;;;9.30;99.90;;;;;;5031882;28;20040;-47
2023/03/25 01:09:13;;;;;;;4.23;0.90;;;9.40;99.90;;;;;;5032144;28;20029;-49
2023/03/25 01:11:42;;;;;;;2.87;0.87;;;9.40;99.90;;;;;;5032282;28;20442;-47
2023/03/25 01:14:16;;;;;;;4.40;0.97;;;9.40;99.90;;;;;;5031970;28;20032;-46
2023/03/25 01:16:42;;;;;;;6.33;1.00;;;9.40;99.90;;;;;;5050170;28;20373;-47
2023/03/25 01:19:09;;;;;;;6.93;1.10;;;9.40;99.90;;;;;;5050025;28;20018;-47
2023/03/25 01:21:35;;;;;;;4.83;1.00;;;9.30;99.90;;;;;;5050002;28;20025;-49
2023/03/25 01:24:06;;;;;;;5.50;1.00;;;9.30;99.90;;;;;;5031854;28;20037;-49
2023/03/25 01:26:32;;;;;;;4.10;1.30;;;9.40;99.90;;;;;;5049718;28;20469;-50
2023/03/25 01:28:58;;;;;;;4.83;1.10;;;9.40;99.90;;;;;;5032025;28;20086;-50
2023/03/25 01:31:28;;;;;;;8.13;1.27;;;9.50;99.90;;;;;;5033716;28;20036;-50
2023/03/25 01:33:56;;;;;;;5.57;0.90;;;9.50;99.90;;;;;;5053777;28;20461;-46
2023/03/25 01:36:23;;;;;;;6.80;0.93;;;9.40;99.90;;;;;;5053192;28;20025;-50
2023/03/25 01:38:50;;;;;;;7.03;1.53;;;9.50;99.90;;;;;;5053676;28;20068;-49
2023/03/25 01:41:16;;;;;;;4.20;1.20;;;9.40;99.90;;;;;;5053527;28;20033;-47
2023/03/25 01:43:59;;;;;;;7.03;1.90;;;9.50;99.90;;;;;;5035504;28;20060;-47
2023/03/25 01:46:25;;;;;;;9.80;2.10;;;9.50;99.90;;;;;;5053114;28;20028;-49
2023/03/25 01:48:50;;;;;;;11.80;2.37;;;9.60;99.90;;;;;;5053155;28;20562;-50
2023/03/25 01:51:24;;;;;;;9.10;2.40;;;9.60;99.90;;;;;;5053303;28;20032;-52
2023/03/25 01:53:54;;;;;;;8.80;2.67;;;9.60;99.90;;;;;;5053126;28;20036;-50
2023/03/25 01:56:29;;;;;;;7.53;1.90;;;9.70;99.90;;;;;;5052773;28;20033;-51
2023/03/25 01:58:58;;;;;;;6.80;1.60;;;9.60;99.90;;;;;;5035176;28;20025;-51
2023/03/25 02:01:25;;;;;;;7.15;1.90;;;9.60;99.90;;;;;;5052929;28;20367;-50
2023/03/25 02:03:54;;;;;;;8.33;2.33;;;9.60;99.90;;;;;;5052875;28;20021;-50
2023/03/25 02:06:32;;;;;;;8.27;2.63;;;9.60;99.90;;;;;;5053038;28;20063;-50
2023/03/25 02:09:01;;;;;;;10.93;3.60;;;9.60;99.90;;;;;;5052875;28;20577;-50
2023/03/25 02:12:01;;;;;;;10.55;2.55;;;9.60;99.90;;;;;;5052925;28;20029;-51
2023/03/25 02:14:33;;;;;;;6.07;1.70;;;9.60;99.90;;;;;;5050829;28;20453;-51
2023/03/25 02:17:13;;;;;;;6.03;1.33;;;9.60;99.90;;;;;;5052526;28;20056;-50
2023/03/25 02:20:16;;;;;;;6.47;1.50;;;9.60;99.90;;;;;;5052710;28;20072;-49
2023/03/25 02:22:48;;;;;;;6.70;1.50;;;9.60;99.90;;;;;;5034470;28;20028;-48
2023/03/25 02:25:39;;;;;;;5.07;1.20;;;9.60;99.90;;;;;;5052294;28;20025;-48
2023/03/25 02:28:24;;;;;;;5.20;1.20;;;9.50;99.90;;;;;;5052354;28;20021;-49
2023/03/25 02:31:28;;;;;;;7.53;1.30;;;9.60;99.90;;;;;;5034423;28;20078;-48
2023/03/25 02:34:15;;;;;;;5.60;1.20;;;9.50;99.90;;;;;;5034136;28;20025;-53
2023/03/25 02:37:13;;;;;;;6.37;1.50;;;9.50;99.90;;;;;;5034179;28;20021;-49
2023/03/25 02:39:44;;;;;;;5.23;1.50;;;9.50;99.90;;;;;;5034352;28;20025;-49
2023/03/25 02:42:37;;;;;;;7.30;1.73;;;9.40;99.90;;;;;;5033934;28;20083;-53
2023/03/25 02:45:09;;;;;;;8.20;2.00;;;9.40;99.90;;;;;;5034063;28;20040;-52
2023/03/25 02:47:43;;;;;;;6.47;1.73;;;9.50;99.90;;;;;;5033835;28;20086;-52
2023/03/25 02:50:33;;;;;;;5.43;1.73;;;9.40;99.90;;;;;;5052034;28;20039;-52
2023/03/25 02:53:05;;;;;;;4.27;1.27;;;9.40;99.90;;;;;;5052043;28;20119;-51
2023/03/25 02:55:32;;;;;;;8.07;1.20;;;9.40;99.90;;;;;;5033570;28;20032;-49
2023/03/25 02:58:02;;;;;;;6.53;1.20;;;9.40;99.90;;;;;;5034001;28;20400;-52
2023/03/25 03:00:30;;;;;;;6.83;1.30;;;9.40;99.90;;;;;;5051754;28;20029;-51
2023/03/25 03:03:01;;;;;;;5.80;1.77;;;9.40;99.90;;;;;;5051847;28;20087;-50
2023/03/25 03:05:32;;;;;;;6.23;1.47;;;9.40;99.90;;;;;;5033777;28;20029;-47
2023/03/25 03:08:05;;;;;;;;;;;9.40;99.90;;;;;;5052182;28;20037;-51
2023/03/25 03:10:47;;;;;;;10.13;2.00;;;9.40;99.90;;;;;;5051599;28;19909;-47
2023/03/25 03:13:28;;;;;;;6.13;1.67;;;9.40;99.90;;;;;;5051702;28;20415;-51
2023/03/25 03:16:03;;;;;;;8.33;1.93;;;9.40;99.90;;;;;;5051452;28;20035;-50
2023/03/25 03:18:57;;;;;;;6.43;1.70;;;9.40;99.90;;;;;;5051241;28;20496;-52
2023/03/25 03:21:45;;;;;;;8.70;1.80;;;9.40;99.90;;;;;;5051482;28;20162;-54
2023/03/25 03:24:24;;;;;;;5.33;2.27;;;9.30;99.90;;;;;;5051373;28;20405;-51
2023/03/25 03:26:54;;;;;;;;;;;9.30;99.90;;;;;;5051810;28;20492;-52
2023/03/25 03:29:35;;;;;;;7.83;1.80;;;9.30;99.90;;;;;;5051093;28;19913;-50
2023/03/25 03:32:03;;;;;;;8.50;2.17;;;9.30;99.90;;;;;;5051293;28;20037;-52
2023/03/25 03:35:03;;;;;;;5.93;1.83;;;9.30;99.90;;;;;;5050812;28;20108;-49
2023/03/25 03:37:33;;;;;;;7.57;2.20;;;9.30;99.90;;;;;;5027829;28;20129;-48
2023/03/25 03:40:03;;;;;;;6.23;2.20;;;9.30;99.90;;;;;;5051131;28;20029;-49
2023/03/25 03:42:41;;;;;;;8.57;1.67;;;9.30;99.90;;;;;;5051027;28;20031;-49
2023/03/25 03:45:18;;;;;;;7.47;1.90;;;9.30;99.90;;;;;;5050657;28;20029;-47
2023/03/25 03:47:48;;;;;;;7.63;2.50;;;9.30;99.90;;;;;;5050495;28;20044;-49
2023/03/25 03:50:20;;;;;;;8.33;2.40;;;9.30;99.90;;;;;;5050579;28;20397;-52
2023/03/25 03:52:53;;;;;;;9.40;3.07;;;9.20;99.90;;;;;;5050743;28;20037;-53
2023/03/25 03:55:31;;;;;;;7.97;2.70;;;9.20;99.90;;;;;;5050274;28;20040;-52
2023/03/25 03:58:06;;;;;;;7.55;2.13;;;9.20;99.90;;;;;;5050532;28;20032;-47
2023/03/25 04:00:48;;;;;;;9.93;3.13;;;9.20;99.90;;;;;;5050592;28;20029;-51
2023/03/25 04:03:23;;;;;;;11.37;2.87;;;9.20;99.90;;;;;;5050825;28;20056;-50
2023/03/25 04:05:59;;;;;;;10.03;2.50;;;9.20;99.90;;;;;;5050573;28;20036;-53
2023/03/25 04:08:36;;;;;;;10.30;2.90;;;9.20;99.90;;;;;;5050438;28;20501;-49
2023/03/25 04:11:08;;;;;;;11.60;2.50;;;9.20;99.90;;;;;;5050464;28;20098;-52
2023/03/25 04:13:41;;;;;;;8.73;2.10;;;9.10;99.90;;;;;;5049920;28;20029;-50
2023/03/25 04:16:07;;;;;;;12.00;2.37;;;9.20;99.90;;;;;;5050262;28;20033;-49
2023/03/25 04:18:33;;;;;;;12.17;2.60;;;9.20;99.90;;;;;;5050190;28;20070;-50
2023/03/25 04:21:00;;;;;;;11.00;2.60;;;9.20;99.90;;;;;;5050401;28;20440;-50
2023/03/25 04:23:28;;;;;;;11.90;1.70;;;9.20;99.90;;;;;;5050154;28;20119;-52
2023/03/25 04:25:55;;;;;;;8.48;1.50;;;9.20;99.90;;;;;;5050412;28;20379;-53
2023/03/25 04:28:22;;;;;;;10.07;2.13;;;9.20;99.90;;;;;;5050287;28;20033;-50
2023/03/25 04:30:54;;;;;;;8.17;1.60;;;9.20;99.90;;;;;;5050351;28;20425;-51
2023/03/25 04:33:21;;;;;;;8.47;1.80;;;9.20;99.90;;;;;;5050121;28;20037;-51
2023/03/25 04:35:49;;;;;;;17.10;3.40;;;9.20;99.90;;;;;;5050261;28;20033;-50
2023/03/25 04:38:19;;;;;;;8.00;2.70;;;9.20;99.90;;;;;;5050057;28;20025;-53
2023/03/25 04:40:46;;;;;;;10.53;2.87;;;9.20;99.90;;;;;;5050072;28;20044;-49
2023/03/25 04:43:13;;;;;;;11.90;3.00;;;9.10;99.90;;;;;;5050299;28;20037;-49
2023/03/25 04:45:41;;;;;;;6.80;1.80;;;9.10;99.90;;;;;;5049995;28;20439;-50
2023/03/25 04:48:18;;;;;;;6.50;1.33;;;9.20;99.90;;;;;;5050112;28;20390;-51
2023/03/25 04:50:45;;;;;;;8.10;2.10;;;9.10;99.90;;;;;;5050052;28;20116;-52
2023/03/25 04:53:10;;;;;;;9.13;2.17;;;9.10;99.90;;;;;;5050272;28;20057;-49
2023/03/25 04:55:36;;;;;;;7.53;1.60;;;9.10;99.90;;;;;;5049807;28;20512;-50
2023/03/25 04:58:02;;;;;;;7.60;1.60;;;9.10;99.90;;;;;;5049759;28;20028;-52
2023/03/25 05:00:28;;;;;;;9.00;1.97;;;9.10;99.90;;;;;;5049982;28;20063;-53
2023/03/25 05:02:54;;;;;;;8.23;2.10;;;9.00;99.90;;;;;;5049956;28;20037;-51
2023/03/25 05:05:24;;;;;;;9.83;2.33;;;9.00;99.90;;;;;;5051417;28;20043;-47
2023/03/25 05:07:53;;;;;;;12.07;2.93;;;9.10;99.90;;;;;;5053921;28;20036;-52
2023/03/25 05:10:21;;;;;;;9.37;2.07;;;9.10;99.90;;;;;;5053856;28;20029;-52
2023/03/25 05:12:46;;;;;;;8.20;2.60;;;9.10;99.90;;;;;;5053783;28;20094;-46
2023/03/25 05:15:13;;;;;;;8.83;2.13;;;9.20;99.90;;;;;;5053441;28;20489;-53
2023/03/25 05:17:39;;;;;;;7.57;2.27;;;9.20;99.90;;;;;;5053482;28;20037;-48
2023/03/25 05:20:10;;;;;;;11.93;3.23;;;9.20;99.90;;;;;;5053632;28;20020;-51
2023/03/25 05:22:38;;;;;;;9.27;2.10;;;9.20;99.90;;;;;;5053899;28;20020;-53
2023/03/25 05:25:06;;;;;;;8.07;2.03;;;9.10;99.90;;;;;;5053275;28;20040;-51
2023/03/25 05:27:33;;;;;;;11.03;2.20;;;9.20;99.90;;;;;;5053289;28;20037;-50
2023/03/25 05:29:59;;;;;;;7.93;1.60;;;9.20;99.90;;;;;;5053476;28;20029;-54
2023/03/25 05:32:28;;;;;;;9.27;1.77;;;9.20;99.90;;;;;;5053399;28;20353;-51
2023/03/25 05:34:55;;;;;;;13.27;2.45;;;9.20;99.90;;;;;;5053061;28;20052;-51
2023/03/25 05:37:21;;;;;;;12.40;2.60;;;9.20;99.90;;;;;;5053229;28;20033;-47
2023/03/25 05:39:47;;;;;;;10.97;2.27;;;9.20;99.90;;;;;;5053322;28;20029;-50
2023/03/25 05:42:13;;;;;;;9.83;1.53;;;9.20;99.90;;;;;;5053259;28;20037;-52
2023/03/25 05:44:45;;;;;;;8.10;2.27;;;9.20;99.90;;;;;;5053166;28;20025;-51
2023/03/25 05:47:12;;;;;;;7.37;1.70;;;9.20;99.90;;;;;;5053051;28;20041;-50
2023/03/25 05:49:40;;;;;;;9.57;2.20;;;9.20;99.90;;;;;;5053386;28;20036;-51
2023/03/25 05:52:07;;;;;;;9.30;2.50;;;9.20;99.90;;;;;;5053096;28;20104;-51
2023/03/25 05:54:37;;;;;;;10.80;2.20;;;9.30;99.90;;;;;;5052621;28;20067;-48
2023/03/25 05:57:04;;;;;;;11.10;2.50;;;9.20;99.90;;;;;;5052956;28;20637;-49
2023/03/25 05:59:30;;;;;;;9.83;2.80;;;9.20;99.90;;;;;;5052854;28;20504;-51
2023/03/25 06:01:56;;;;;;;15.03;3.57;;;9.20;99.90;;;;;;5053275;28;20033;-49
2023/03/25 06:04:22;;;;;;;10.57;2.60;;;9.20;99.90;;;;;;5052731;28;20300;-52
2023/03/25 06:06:48;;;;;;;11.67;2.80;;;9.20;99.90;;;;;;5052765;28;20474;-47
2023/03/25 06:09:14;;;;;;;11.67;2.53;;;9.20;99.90;;;;;;5053097;28;20041;-51
2023/03/25 06:11:40;;;;;;;11.80;2.47;;;9.20;99.90;;;;;;5052795;28;20033;-53
2023/03/25 06:14:06;;;;;;;10.80;3.00;;;9.30;99.90;;;;;;5052383;28;20489;-48
2023/03/25 06:16:32;;;;;;;8.50;2.50;;;9.20;99.90;;;;;;5051661;28;20051;-50
2023/03/25 06:18:59;;;;;;;10.33;2.77;;;9.20;99.90;;;;;;5052706;28;20029;-49
2023/03/25 06:21:31;;;;;;;9.77;2.87;;;9.30;99.90;;;;;;5052670;28;20445;-48
2023/03/25 06:23:59;;;;;;;12.23;2.70;;;9.20;99.90;;;;;;5052335;28;20513;-51
2023/03/25 06:26:25;;;;;;;13.33;2.33;;;9.30;99.90;;;;;;5052123;28;20112;-51
2023/03/25 06:28:51;;;;;;;12.67;3.10;;;9.30;99.90;;;;;;5052436;28;20108;-51
2023/03/25 06:31:25;;;;;;;18.30;6.03;;;9.20;99.90;;;;;;5052462;28;20039;-50
2023/03/25 06:33:51;;;;;;;16.70;5.73;;;9.40;99.90;;;;;;5051852;28;20492;-50
2023/03/25 06:36:19;;;;;;;19.43;4.10;;;9.30;99.90;;;;;;5052070;28;20040;-48
2023/03/25 06:38:47;;;;;;;14.67;3.47;;;9.30;99.90;;;;;;5051911;28;20049;-49
2023/03/25 06:41:19;;;;;;;12.93;3.60;;;9.30;99.90;;;;;;5034155;28;20029;-51
2023/03/25 06:43:48;;;;;;;8.23;2.27;;;9.20;99.90;;;;;;5034093;28;20120;-51
2023/03/25 06:46:32;;;;;;;11.13;2.57;;;9.20;99.90;;;;;;5052206;28;20400;-51
2023/03/25 06:49:15;;;;;;;13.20;3.47;;;9.20;99.90;;;;;;5034290;28;20147;-50
2023/03/25 06:51:41;;;;;;;19.10;3.00;;;9.20;99.90;;;;;;5051982;28;20072;-48
2023/03/25 06:54:07;;;;;;;11.37;3.07;;;9.20;99.90;;;;;;5051766;28;20047;-49
2023/03/25 06:56:33;;;;;;;15.37;2.77;;;9.20;99.90;;;;;;5079353;22;20049;-56
2023/03/25 06:58:59;;;;;;;13.13;3.17;;;9.30;99.90;;;;;;5071821;28;20447;-57
2023/03/25 07:01:25;;;;;;;9.73;3.07;;;9.40;99.90;;;;;;5071952;28;20112;-57
2023/03/25 07:03:50;;;;;;;11.57;3.20;;;9.30;99.90;;;;;;5071788;28;20039;-57
2023/03/25 07:06:19;;;;;;;16.10;3.27;;;9.30;99.90;;;;;;5071636;28;20043;-57
2023/03/25 07:08:45;;;;;;;10.85;3.10;;;9.30;99.90;;;;;;5071723;28;20024;-57
2023/03/25 07:11:12;;;;;;;10.97;3.53;;;9.20;99.90;;;;;;5071621;28;20116;-57
2023/03/25 07:13:38;;;;;;;16.40;4.03;;;9.20;99.90;;;;;;5071511;28;20040;-57
2023/03/25 07:16:04;;;;;;;12.63;3.57;;;9.30;99.90;;;;;;5071544;28;20051;-57
2023/03/25 07:18:30;;;;;;;17.07;3.77;;;9.40;99.90;;;;;;5053429;28;20051;-57
2023/03/25 07:20:57;;;;;;;10.20;3.33;;;9.40;99.90;;;;;;5071635;28;20025;-57
2023/03/25 07:23:22;;;;;;;14.23;3.67;;;9.50;99.90;;;;;;5053279;28;20039;-57
2023/03/25 07:25:48;;;;;;;11.93;2.73;;;9.50;99.90;;;;;;5071289;28;20489;-57
2023/03/25 07:28:14;;;;;;;10.27;3.13;;;9.40;99.90;;;;;;5071062;28;20032;-57
2023/03/25 07:30:45;;;;;;;12.27;3.20;;;9.40;99.90;;;;;;5053343;28;20032;-57
2023/03/25 07:33:10;;;;;;;14.63;3.20;;;9.40;99.90;;;;;;5071522;28;20036;-57
2023/03/25 07:35:36;;;;;;;13.07;2.90;;;9.40;99.90;;;;;;5070900;28;20048;-57
2023/03/25 07:38:02;;;;;;;14.47;2.73;;;9.30;99.90;;;;;;5070931;28;20035;-57
2023/03/25 07:40:28;;;;;;;13.63;3.00;;;9.30;99.90;;;;;;5071436;28;20442;-57
2023/03/25 07:42:54;;;;;;;11.10;3.20;;;9.30;99.90;;;;;;5053413;28;20024;-57
2023/03/25 07:45:23;;;;;;;17.43;4.27;;;9.20;99.90;;;;;;5052831;28;20405;-57
2023/03/25 07:47:52;;;;;;;14.45;3.38;;;9.30;99.90;;;;;;5052939;28;20055;-57
2023/03/25 07:50:19;;;;;;;17.90;3.00;;;9.30;99.90;;;;;;5071068;28;20048;-57
2023/03/25 07:52:45;;;;;;;12.33;2.50;;;9.30;99.90;;;;;;5071012;28;20028;-57
2023/03/25 07:55:11;;;;;;;12.70;2.47;;;9.40;99.90;;;;;;5070457;28;20037;-57
2023/03/25 07:57:36;;;;;;;10.73;2.17;;;9.40;99.90;;;;;;5070721;28;20036;-57
2023/03/25 08:00:04;;;;;;;8.57;1.70;;;9.50;99.90;;;;;;5070749;28;20040;-57
2023/03/25 08:02:38;;;;;;;11.00;1.50;;;9.40;99.90;;;;;;5070867;28;20043;-58
2023/03/25 08:05:04;;;;;;;14.23;2.40;;;9.40;99.90;;;;;;5070619;28;20412;-58
2023/03/25 08:07:31;;;;;;;18.10;4.90;;;9.50;99.90;;;;;;5070452;28;20119;-56
2023/03/25 08:09:57;;;;;;;8.20;1.30;;;9.60;99.90;;;;;;5070580;28;20097;-57
2023/03/25 08:12:22;;;;;;;7.00;1.93;;;9.70;99.90;;;;;;5052997;28;20036;-57
2023/03/25 08:14:49;;;;;;;6.57;1.47;;;9.70;99.90;;;;;;5070378;28;20025;-56
2023/03/25 08:17:14;;;;;;;12.47;1.87;;;9.90;99.90;;;;;;5070730;28;20025;-57
2023/03/25 08:19:40;;;;;;;8.57;1.67;;;10.00;99.90;;;;;;5052744;28;20381;-56
2023/03/25 08:22:06;;;;;;;10.13;1.47;;;10.10;99.90;;;;;;5070892;28;20024;-56
2023/03/25 08:24:31;;;;;;;13.30;2.40;;;10.20;99.90;;;;;;5070306;28;20120;-56
2023/03/25 08:26:59;;;;;;;8.23;1.50;;;10.10;99.90;;;;;;5070176;28;20031;-56
2023/03/25 08:29:26;;;;;;;6.87;1.33;;;10.10;99.90;;;;;;5070394;28;20090;-56
2023/03/25 08:31:52;;;;;;;7.93;1.67;;;10.10;99.90;;;;;;5070453;28;20043;-56
2023/03/25 08:34:19;;;;;;;9.13;1.60;;;10.00;99.90;;;;;;5070186;28;20032;-56
2023/03/25 08:36:45;;;;;;;10.00;2.00;;;10.10;99.90;;;;;;5070215;28;20101;-57
2023/03/25 08:39:16;;;;;;;10.73;2.17;;;10.10;99.90;;;;;;5070969;28;20115;-57
2023/03/25 08:41:42;;;;;;;11.07;1.90;;;10.20;99.90;;;;;;5077444;28;20074;-57
2023/03/25 08:44:09;;;;;;;12.50;2.33;;;10.20;99.90;;;;;;5076796;28;20028;-57
2023/03/25 08:46:35;;;;;;;7.33;1.47;;;10.20;99.90;;;;;;5058925;28;20043;-57
2023/03/25 08:49:01;;;;;;;8.90;1.73;;;10.30;99.90;;;;;;5077204;28;20537;-57
2023/03/25 08:51:27;;;;;;;13.57;2.27;;;10.30;99.90;;;;;;5077010;28;20032;-57
2023/03/25 08:53:53;;;;;;;14.27;2.07;;;10.20;99.90;;;;;;5076632;28;20040;-57
2023/03/25 08:56:19;;;;;;;12.03;2.20;;;10.20;99.90;;;;;;5076574;28;20041;-57
2023/03/25 08:58:45;;;;;;;11.90;2.27;;;10.30;99.90;;;;;;5077138;28;20107;-57
2023/03/25 09:01:10;;;;;;;15.70;2.00;;;10.20;99.90;;;;;;5077095;28;20043;-57
2023/03/25 09:03:37;;;;;;;11.83;2.10;;;10.30;99.90;;;;;;5076756;28;20037;-57
2023/03/25 09:06:07;;;;;;;9.53;2.23;;;10.30;99.90;;;;;;5076793;28;20032;-57
2023/03/25 09:08:35;;;;;;;9.97;1.70;;;10.30;99.90;;;;;;5076587;28;20450;-57
2023/03/25 09:11:01;;;;;;;15.67;2.30;;;10.20;99.90;;;;;;5076840;28;20028;-57
2023/03/25 09:13:27;;;;;;;19.03;3.67;;;10.20;99.90;;;;;;5076559;28;20485;-57
2023/03/25 09:15:53;;;;;;;11.07;2.43;;;10.20;99.90;;;;;;5076820;28;20035;-57
2023/03/25 09:18:18;;;;;;;9.77;1.90;;;10.20;99.90;;;;;;5076695;28;20069;-57
2023/03/25 09:20:47;;;;;;;18.10;4.77;;;10.20;99.90;;;;;;5076552;28;20388;-57
2023/03/25 09:23:13;;;;;;;10.63;2.50;;;10.20;99.90;;;;;;5076428;28;20115;-57
2023/03/25 09:25:39;;;;;;;19.40;4.17;;;10.20;99.90;;;;;;5076386;28;20097;-57
2023/03/25 09:28:05;;;;;;;10.70;2.63;;;10.20;99.90;;;;;;5076586;28;20109;-57
2023/03/25 09:30:31;;;;;;;13.13;2.30;;;10.10;99.90;;;;;;5076714;28;20082;-57
2023/03/25 09:32:57;;;;;;;15.23;2.33;;;10.10;99.90;;;;;;5076574;28;20396;-56
2023/03/25 09:35:22;;;;;;;17.70;2.27;;;10.10;99.90;;;;;;5076279;28;20029;-56
2023/03/25 09:37:48;;;;;;;12.73;1.70;;;10.20;99.90;;;;;;5076283;28;20037;-56
2023/03/25 09:40:16;;;;;;;10.90;2.07;;;10.30;99.90;;;;;;5076712;28;20029;-56
2023/03/25 09:43:07;;;;;;;19.23;2.10;;;10.40;99.90;;;;;;5076548;28;20039;-57
2023/03/25 09:45:43;;;;;;;13.30;2.37;;;10.40;99.90;;;;;;5076300;28;20041;-57
2023/03/25 09:48:21;;;;;;;10.20;1.90;;;10.50;99.90;;;;;;5076227;28;20056;-57
2023/03/25 09:50:47;;;;;;;12.13;2.40;;;10.70;99.90;;;;;;5075504;28;20039;-57
2023/03/25 09:53:41;;;;;;;14.30;2.20;;;10.80;99.90;;;;;;5072634;28;20036;-57
2023/03/25 09:56:15;;;;;;;12.13;2.37;;;11.00;99.90;;;;;;5073414;28;20075;-57
2023/03/25 09:58:45;;;;;;;11.70;2.00;;;11.00;99.90;;;;;;5073117;28;20063;-57
2023/03/25 10:01:47;;;;;;;13.17;2.60;;;11.00;99.90;;;;;;5073367;28;20040;-57
2023/03/25 10:04:37;;;;;;;14.40;2.33;;;11.00;99.90;;;;;;5072961;28;20046;-57
2023/03/25 10:07:32;;;;;;;12.60;2.23;;;11.00;99.90;;;;;;5072843;28;20516;-57
2023/03/25 10:10:26;;;;;;;16.70;2.20;;;11.00;99.90;;;;;;5073151;28;20077;-57
2023/03/25 10:13:20;;;;;;;10.67;1.77;;;11.00;99.90;;;;;;5073331;28;20029;-57
2023/03/25 10:16:00;;;;;;;14.83;2.90;;;11.00;99.90;;;;;;5073212;28;20443;-57
2023/03/25 10:18:44;;;;;;;13.50;2.27;;;10.90;99.90;;;;;;5073041;28;20454;-57
2023/03/25 10:21:15;;;;;;;11.60;1.97;;;10.90;99.90;;;;;;5073129;28;20128;-58
2023/03/25 10:23:46;;;;;;;7.03;1.70;;;10.90;99.90;;;;;;5072853;28;20388;-58
2023/03/25 10:26:24;;;;;;;15.13;2.50;;;11.10;99.90;;;;;;5073036;28;20516;-58
2023/03/25 10:29:00;;;;;;;15.30;2.43;;;11.20;99.90;;;;;;5073008;28;20035;-58
2023/03/25 10:31:32;;;;;;;13.77;2.00;;;11.20;99.90;;;;;;5073083;28;20024;-58
2023/03/25 10:34:04;;;;;;;11.33;2.67;;;11.30;99.90;;;;;;5072586;28;20032;-57
2023/03/25 10:36:35;;;;;;;10.10;1.83;;;11.50;99.90;;;;;;5072830;28;20039;-57
2023/03/25 10:39:05;;;;;;;11.30;2.10;;;11.40;99.90;;;;;;5072974;28;20039;-57
2023/03/25 10:41:38;;;;;;;11.67;2.07;;;11.50;99.90;;;;;;5072895;28;20055;-57
2023/03/25 10:44:10;;;;;;;8.53;1.80;;;11.80;99.90;;;;;;5072466;28;20404;-57
2023/03/25 10:46:53;;;;;;;9.10;1.70;;;11.70;99.90;;;;;;5072214;28;20115;-57
2023/03/25 10:49:27;;;;;;;7.03;1.70;;;11.80;99.90;;;;;;5072349;28;20051;-57
2023/03/25 10:51:56;;;;;;;6.67;1.67;;;11.80;99.90;;;;;;5072428;28;20452;-57
2023/03/25 10:54:26;;;;;;;10.18;1.70;;;11.70;99.90;;;;;;5072157;28;20033;-57
2023/03/25 10:56:58;;;;;;;9.57;2.00;;;11.80;99.90;;;;;;5071900;28;20384;-57
2023/03/25 10:59:35;;;;;;;10.77;1.67;;;11.70;99.90;;;;;;5072304;28;20036;-57
2023/03/25 11:02:24;;;;;;;9.03;1.60;;;11.50;99.90;;;;;;5072399;28;20031;-57
2023/03/25 11:04:54;;;;;;;6.13;1.30;;;11.40;99.90;;;;;;5071812;28;20032;-57
2023/03/25 11:07:25;;;;;;;9.00;1.97;;;11.30;99.90;;;;;;5071636;28;20029;-57
2023/03/25 11:09:51;;;;;;;7.40;1.33;;;11.40;99.90;;;;;;5071817;28;20056;-57
2023/03/25 11:12:19;;;;;;;6.33;1.47;;;11.50;99.90;;;;;;5071974;28;20075;-57
2023/03/25 11:14:55;;;;;;;8.17;1.60;;;11.60;99.90;;;;;;5071453;28;20043;-56
2023/03/25 11:17:24;;;;;;;9.73;2.13;;;11.70;99.90;;;;;;5071475;28;20397;-57
2023/03/25 11:20:00;;;;;;;10.13;2.13;;;11.90;99.90;;;;;;5071589;28;20025;-57
2023/03/25 11:22:49;;;;;;;13.75;2.33;;;12.40;99.90;;;;;;5071670;28;20028;-57
2023/03/25 11:25:22;;;;;;;8.88;1.70;;;13.10;99.90;;;;;;5071432;28;20094;-57
2023/03/25 11:27:54;;;;;;;9.32;1.92;;;13.20;99.90;;;;;;5071323;28;20036;-57
2023/03/25 11:30:22;;;;;;;8.55;1.77;;;13.00;99.90;;;;;;5071353;28;20032;-57
2023/03/25 11:32:58;;;;;;;10.45;1.80;;;13.00;99.90;;;;;;5071325;28;20108;-57
2023/03/25 11:35:27;;;;;;;10.32;2.05;;;12.90;99.90;;;;;;5070846;28;20063;-57
2023/03/25 11:37:55;;;;;;;;;;;13.50;99.90;;;;;;5071693;28;20036;-57
2023/03/25 11:40:21;;;;;;;8.75;1.23;;;14.50;99.90;;;;;;5071201;28;19912;-57
2023/03/25 11:42:56;;;;;;;8.10;1.85;;;15.20;99.90;;;;;;5071120;28;20028;-57
2023/03/25 11:45:34;;;;;;;7.68;1.42;;;15.60;99.90;;;;;;5070878;28;20025;-57
2023/03/25 11:48:08;;;;;;;8.32;1.77;;;15.70;99.90;;;;;;5070958;28;20036;-57
2023/03/25 11:50:34;;;;;;;10.77;2.05;;;15.40;99.90;;;;;;5070907;28;20043;-57
2023/03/25 11:53:03;;;;;;;12.07;2.28;;;14.90;99.90;;;;;;5070859;28;20032;-57
2023/03/25 11:55:44;;;;;;;8.97;2.17;;;14.60;99.90;;;;;;5070425;28;20037;-57
2023/03/25 11:58:20;;;;;;;13.27;2.15;;;14.70;99.90;;;;;;5070772;28;20445;-57
2023/03/25 12:00:49;;;;;;;7.43;1.67;;;14.80;99.90;;;;;;5070880;28;20028;-57
2023/03/25 12:03:16;;;;;;;11.55;1.63;;;14.90;99.90;;;;;;5070809;28;20064;-57
2023/03/25 12:05:55;;;;;;;8.15;1.48;;;14.30;99.90;;;;;;5052588;28;20032;-57
2023/03/25 12:08:20;;;;;;;7.03;1.20;;;14.00;99.90;;;;;;5070764;28;20093;-57
2023/03/25 12:10:55;;;;;;;4.28;1.20;;;13.60;99.90;;;;;;5070658;28;20036;-57
2023/03/25 12:13:23;;;;;;;6.90;1.50;;;13.30;99.90;;;;;;5070437;28;20461;-58
2023/03/25 12:16:10;;;;;;;5.78;1.08;;;14.10;99.90;;;;;;5051978;28;20039;-58
2023/03/25 12:18:47;;;;;;;8.10;1.58;;;14.80;99.90;;;;;;5070336;28;20036;-58
2023/03/25 12:21:21;;;;;;;6.15;1.20;;;15.10;99.90;;;;;;5070597;28;20029;-58
2023/03/25 12:23:53;;;;;;;6.13;1.30;;;15.10;99.90;;;;;;5070375;28;20516;-57
2023/03/25 12:26:27;;;;;;;8.75;1.77;;;14.90;99.90;;;;;;5070430;28;20040;-57
2023/03/25 12:29:11;;;;;;;10.75;1.48;;;14.90;99.90;;;;;;5052643;28;20496;-57
2023/03/25 12:31:42;;;;;;;8.30;1.48;;;14.10;99.90;;;;;;5070536;28;20078;-57
2023/03/25 12:34:37;;;;;;;8.13;2.10;;;13.80;99.90;;;;;;5070070;28;20630;-57
2023/03/25 12:37:23;;;;;;;6.10;1.60;;;13.60;99.90;;;;;;5069713;28;20464;-57
2023/03/25 12:40:05;;;;;;;8.18;1.70;;;13.90;99.90;;;;;;5070394;28;20039;-57
2023/03/25 12:42:47;;;;;;;9.27;1.85;;;13.80;99.90;;;;;;5070379;28;20465;-57
2023/03/25 12:45:16;;;;;;;11.15;2.40;;;14.00;99.90;;;;;;5069962;28;20491;-58
2023/03/25 12:47:47;;;;;;;9.68;1.92;;;13.90;99.90;;;;;;5070179;28;20028;-60
2023/03/25 12:50:25;;;;;;;8.95;1.58;;;13.70;99.90;;;;;;5070299;28;20515;-57
2023/03/25 12:53:31;;;;;;;7.25;1.52;;;13.80;99.90;;;;;;5070353;28;20078;-58
2023/03/25 12:56:25;;;;;;;9.30;1.63;;;13.60;99.90;;;;;;5084273;22;20469;-47
2023/03/25 12:59:01;;;;;;;9.45;2.20;;;13.40;99.90;;;;;;5070236;28;20048;-48
2023/03/25 13:01:46;;;;;;;10.27;2.25;;;13.30;99.90;;;;;;5070218;28;20032;-48
2023/03/25 13:04:30;;;;;;;10.95;2.10;;;13.20;99.90;;;;;;5069909;28;20062;-50
2023/03/25 13:07:01;;;;;;;8.50;1.58;;;13.40;99.90;;;;;;5069952;28;20032;-53
2023/03/25 13:09:34;;;;;;;11.00;2.60;;;13.20;99.90;;;;;;5070047;28;20056;-53
2023/03/25 13:12:08;;;;;;;10.63;1.60;;;13.40;99.90;;;;;;5070119;28;20040;-54
2023/03/25 13:15:01;;;;;;;11.55;1.92;;;13.20;99.90;;;;;;5069720;28;20028;-49